Time;durP1;ratioP1;P1;durP2;ratioP2;P2;SDS_P1;SDS_P2;PMS_P1;PMS_P2;Temp;Humidity;BMP_temperature;BMP_pressure;BME280_temperature;BME280_humidity;BME280_pressure;Samples;Min_cycle;Max_cycle;Signal;HPM_P1;HPM_P2
2021/06/24 00:00:59;;;;;;;25.27;14.20;;;;;;;;;;5013031;28;20026;-64
2021/06/24 00:03:29;;;;;;;22.55;14.40;;;;;;;;;;4999196;28;20666;-63
2021/06/24 00:05:55;;;;;;;23.80;14.57;;;;;;;;;;4993651;28;20057;-63
2021/06/24 00:08:22;;;;;;;24.98;14.02;;;;;;;;;;5008835;28;20026;-64
2021/06/24 00:10:49;;;;;;;23.17;15.48;;;;;;;;;;5008926;28;20028;-67
2021/06/24 00:13:15;;;;;;;24.40;15.85;;;;;;;;;;5009198;28;20057;-65
2021/06/24 00:15:41;;;;;;;27.83;15.60;;;;;;;;;;5009281;28;20021;-66
2021/06/24 00:18:08;;;;;;;25.80;14.82;;;;;;;;;;5030024;28;20021;-65
2021/06/24 00:20:34;;;;;;;22.80;14.85;;;;;;;;;;5029365;28;20029;-67
2021/06/24 00:23:00;;;;;;;22.90;13.85;;;;;;;;;;5029760;28;20053;-65
2021/06/24 00:25:26;;;;;;;23.30;13.90;;;;;;;;;;5011845;28;20053;-64
2021/06/24 00:27:52;;;;;;;22.50;14.30;;;;;;;;;;5030830;28;20496;-64
2021/06/24 00:30:19;;;;;;;23.33;13.95;;;;;;;;;;5029771;28;20481;-64
2021/06/24 00:32:44;;;;;;;24.83;14.43;;;;;;;;;;5012054;28;20068;-65
2021/06/24 00:35:12;;;;;;;24.13;14.77;;;;;;;;;;5030068;28;20053;-65
2021/06/24 00:37:40;;;;;;;23.45;14.85;;;;;;;;;;5031584;28;20028;-64
2021/06/24 00:40:07;;;;;;;25.43;14.87;;;;;;;;;;5013934;28;20076;-64
2021/06/24 00:42:34;;;;;;;21.13;14.80;;;;;;;;;;5031499;28;20287;-64
2021/06/24 00:45:00;;;;;;;24.77;14.43;;;;;;;;;;5013585;28;20029;-65
2021/06/24 00:47:26;;;;;;;25.55;15.07;;;;;;;;;;5013627;28;20164;-64
2021/06/24 00:49:52;;;;;;;22.58;15.63;;;;;;;;;;5031422;28;20104;-64
2021/06/24 00:52:18;;;;;;;20.85;15.07;;;;;;;;;;5031356;28;20534;-64
2021/06/24 00:54:44;;;;;;;22.23;14.45;;;;;;;;;;5034430;28;20401;-64
2021/06/24 00:57:10;;;;;;;24.02;15.95;;;;;;;;;;5035123;28;20098;-65
2021/06/24 00:59:37;;;;;;;25.02;15.13;;;;;;;;;;5017360;28;20036;-64
2021/06/24 01:02:05;;;;;;;26.35;16.33;;;;;;;;;;5017184;28;20072;-60
2021/06/24 01:04:31;;;;;;;25.80;16.73;;;;;;;;;;5035006;28;20545;-64
2021/06/24 01:06:57;;;;;;;27.35;15.50;;;;;;;;;;5034897;28;20147;-61
2021/06/24 01:09:23;;;;;;;24.00;15.90;;;;;;;;;;5034921;28;20116;-64
2021/06/24 01:11:49;;;;;;;24.80;16.70;;;;;;;;;;5034912;28;20028;-64
2021/06/24 01:14:15;;;;;;;24.33;16.17;;;;;;;;;;5034616;28;20037;-64
2021/06/24 01:16:42;;;;;;;23.83;15.75;;;;;;;;;;5034842;28;20057;-65
2021/06/24 01:19:10;;;;;;;23.83;15.77;;;;;;;;;;5034668;28;20030;-64
2021/06/24 01:21:36;;;;;;;;;;;;;;;;;;5035031;28;20026;-64
2021/06/24 01:24:02;;;;;;;27.42;16.02;;;;;;;;;;5016777;28;19916;-66
2021/06/24 01:26:28;;;;;;;26.27;16.40;;;;;;;;;;5016695;28;20025;-65
2021/06/24 01:28:54;;;;;;;27.40;15.55;;;;;;;;;;5016140;28;20132;-65
2021/06/24 01:31:21;;;;;;;25.77;15.13;;;;;;;;;;5034444;28;20061;-64
2021/06/24 01:33:48;;;;;;;23.52;15.93;;;;;;;;;;5034464;28;20104;-65
2021/06/24 01:36:14;;;;;;;25.23;16.52;;;;;;;;;;5034264;28;20026;-64
2021/06/24 01:38:42;;;;;;;25.60;16.05;;;;;;;;;;5016583;28;20029;-65
2021/06/24 01:41:10;;;;;;;26.00;16.25;;;;;;;;;;5017463;28;20075;-63
2021/06/24 01:43:36;;;;;;;24.88;15.85;;;;;;;;;;5034437;28;20021;-63
2021/06/24 01:46:02;;;;;;;23.42;16.08;;;;;;;;;;5034555;28;20095;-63
2021/06/24 01:48:29;;;;;;;22.83;15.70;;;;;;;;;;5017037;28;20022;-66
2021/06/24 01:50:56;;;;;;;22.13;15.38;;;;;;;;;;5034417;28;20017;-65
2021/06/24 01:53:22;;;;;;;25.15;15.45;;;;;;;;;;5034419;28;20026;-65
2021/06/24 01:55:48;;;;;;;24.58;15.80;;;;;;;;;;5016229;28;20048;-65
2021/06/24 01:58:17;;;;;;;24.00;15.73;;;;;;;;;;5034286;28;20029;-66
2021/06/24 02:00:43;;;;;;;24.58;15.60;;;;;;;;;;5016208;28;20056;-67
2021/06/24 02:03:10;;;;;;;27.30;15.40;;;;;;;;;;5016129;28;20026;-65
2021/06/24 02:05:36;;;;;;;25.42;15.40;;;;;;;;;;5015237;28;20026;-67
2021/06/24 02:08:02;;;;;;;23.15;15.57;;;;;;;;;;5033842;28;20022;-67
2021/06/24 02:10:28;;;;;;;23.73;15.00;;;;;;;;;;5033929;28;20028;-66
2021/06/24 02:12:54;;;;;;;25.35;15.38;;;;;;;;;;5033818;28;20034;-66
2021/06/24 02:15:21;;;;;;;25.10;15.63;;;;;;;;;;5015670;28;20448;-65
2021/06/24 02:17:47;;;;;;;25.40;16.33;;;;;;;;;;5033696;28;20029;-65
2021/06/24 02:20:14;;;;;;;23.20;16.45;;;;;;;;;;5033785;28;20084;-63
2021/06/24 02:22:41;;;;;;;23.33;15.07;;;;;;;;;;5033574;28;20076;-67
2021/06/24 02:25:08;;;;;;;27.95;15.68;;;;;;;;;;5033435;28;20457;-66
2021/06/24 02:27:34;;;;;;;24.27;15.77;;;;;;;;;;5033329;28;20031;-65
2021/06/24 02:30:00;;;;;;;24.75;15.90;;;;;;;;;;5033402;28;20079;-63
2021/06/24 02:32:26;;;;;;;24.52;15.77;;;;;;;;;;5033532;28;20033;-63
2021/06/24 02:34:53;;;;;;;26.67;15.90;;;;;;;;;;5033262;28;20477;-62
2021/06/24 02:37:19;;;;;;;26.15;15.90;;;;;;;;;;5015717;28;20033;-66
2021/06/24 02:39:45;;;;;;;28.35;16.73;;;;;;;;;;5015480;28;20094;-66
2021/06/24 02:42:11;;;;;;;24.50;15.48;;;;;;;;;;5033166;28;20021;-68
2021/06/24 02:44:37;;;;;;;26.25;17.00;;;;;;;;;;5015388;28;20040;-63
2021/06/24 02:47:03;;;;;;;23.45;15.80;;;;;;;;;;5015470;28;20655;-63
2021/06/24 02:49:29;;;;;;;22.98;16.25;;;;;;;;;;5033167;28;20026;-64
2021/06/24 02:51:55;;;;;;;23.35;16.00;;;;;;;;;;5015343;28;20033;-64
2021/06/24 02:54:21;;;;;;;28.95;16.17;;;;;;;;;;5015143;28;20116;-64
2021/06/24 02:56:47;;;;;;;24.83;16.25;;;;;;;;;;5015243;28;20021;-65
2021/06/24 02:59:13;;;;;;;22.90;16.23;;;;;;;;;;5032696;28;20129;-64
2021/06/24 03:01:39;;;;;;;26.33;16.15;;;;;;;;;;5032912;28;20028;-65
2021/06/24 03:04:08;;;;;;;26.23;16.63;;;;;;;;;;5032903;28;20105;-66
2021/06/24 03:06:34;;;;;;;23.67;16.38;;;;;;;;;;5032803;28;20024;-66
2021/06/24 03:09:01;;;;;;;25.30;16.42;;;;;;;;;;5014990;28;20025;-66
2021/06/24 03:11:27;;;;;;;25.63;17.25;;;;;;;;;;5014856;28;20104;-66
2021/06/24 03:13:54;;;;;;;26.35;17.42;;;;;;;;;;5014882;28;20026;-65
2021/06/24 03:16:20;;;;;;;30.48;17.77;;;;;;;;;;5014645;28;20029;-66
2021/06/24 03:18:48;;;;;;;25.35;17.17;;;;;;;;;;5032538;28;20466;-65
2021/06/24 03:21:14;;;;;;;28.75;16.58;;;;;;;;;;5014822;28;20096;-65
2021/06/24 03:23:40;;;;;;;29.05;17.85;;;;;;;;;;5014665;28;20250;-65
2021/06/24 03:26:06;;;;;;;26.58;17.92;;;;;;;;;;5032233;28;20429;-64
2021/06/24 03:28:32;;;;;;;29.73;16.92;;;;;;;;;;5032156;28;20401;-65
2021/06/24 03:30:58;;;;;;;26.15;17.05;;;;;;;;;;5032286;28;20029;-64
2021/06/24 03:33:25;;;;;;;24.50;17.13;;;;;;;;;;5032447;28;20034;-65
2021/06/24 03:35:51;;;;;;;25.80;16.50;;;;;;;;;;5031988;28;20036;-64
2021/06/24 03:38:17;;;;;;;27.88;16.40;;;;;;;;;;5032047;28;20029;-65
2021/06/24 03:40:44;;;;;;;29.25;16.95;;;;;;;;;;5031975;28;20029;-67
2021/06/24 03:43:10;;;;;;;26.33;16.95;;;;;;;;;;5031978;28;20595;-66
2021/06/24 03:45:37;;;;;;;26.73;16.27;;;;;;;;;;5031909;28;20033;-65
2021/06/24 03:48:03;;;;;;;24.63;17.35;;;;;;;;;;5014450;28;20432;-65
2021/06/24 03:50:29;;;;;;;26.17;17.55;;;;;;;;;;5032041;28;20393;-65
2021/06/24 03:52:55;;;;;;;24.42;17.65;;;;;;;;;;5031901;28;20026;-65
2021/06/24 03:55:35;;;;;;;24.85;16.30;;;;;;;;;;5031764;28;20436;-65
2021/06/24 03:58:02;;;;;;;24.35;16.25;;;;;;;;;;5031719;28;20028;-64
2021/06/24 04:00:28;;;;;;;25.92;17.40;;;;;;;;;;5031964;28;20021;-66
2021/06/24 04:02:54;;;;;;;31.25;18.10;;;;;;;;;;5014145;28;20109;-66
2021/06/24 04:05:20;;;;;;;25.63;16.60;;;;;;;;;;5014104;28;20499;-65
2021/06/24 04:07:46;;;;;;;25.33;17.00;;;;;;;;;;5031603;28;20104;-66
2021/06/24 04:10:12;;;;;;;23.67;17.10;;;;;;;;;;5013909;28;20060;-65
2021/06/24 04:12:39;;;;;;;27.73;17.48;;;;;;;;;;5031729;28;20026;-65
2021/06/24 04:15:05;;;;;;;24.50;16.27;;;;;;;;;;5013729;28;20029;-67
2021/06/24 04:17:31;;;;;;;30.70;17.27;;;;;;;;;;5031771;28;20107;-66
2021/06/24 04:19:57;;;;;;;30.83;17.63;;;;;;;;;;5014276;28;20493;-66
2021/06/24 04:22:24;;;;;;;27.92;17.85;;;;;;;;;;5031551;28;20029;-66
2021/06/24 04:24:50;;;;;;;27.02;17.52;;;;;;;;;;5031742;28;20512;-64
2021/06/24 04:27:16;;;;;;;24.63;16.75;;;;;;;;;;5013954;28;20030;-65
2021/06/24 04:29:42;;;;;;;24.02;16.58;;;;;;;;;;5035219;28;20027;-66
2021/06/24 04:32:08;;;;;;;29.25;19.08;;;;;;;;;;5017975;28;20394;-66
2021/06/24 04:34:34;;;;;;;29.70;17.75;;;;;;;;;;5017726;28;20040;-66
2021/06/24 04:37:00;;;;;;;23.65;17.33;;;;;;;;;;5035811;28;20028;-65
2021/06/24 04:39:26;;;;;;;25.95;18.27;;;;;;;;;;5035652;28;20105;-66
2021/06/24 04:41:52;;;;;;;23.60;17.08;;;;;;;;;;5035473;28;20022;-65
2021/06/24 04:44:18;;;;;;;26.98;18.08;;;;;;;;;;5017669;28;20040;-65
2021/06/24 04:46:44;;;;;;;29.75;20.23;;;;;;;;;;5035647;28;20025;-66
2021/06/24 04:49:10;;;;;;;25.77;18.15;;;;;;;;;;5035263;28;20036;-66
2021/06/24 04:51:36;;;;;;;23.55;17.55;;;;;;;;;;5017450;28;20025;-66
2021/06/24 04:54:02;;;;;;;33.85;24.15;;;;;;;;;;5035280;28;20055;-66
2021/06/24 04:56:29;;;;;;;25.52;19.20;;;;;;;;;;5035133;28;20096;-66
2021/06/24 04:58:55;;;;;;;28.92;18.35;;;;;;;;;;5017797;28;20040;-64
2021/06/24 05:01:21;;;;;;;25.10;18.25;;;;;;;;;;5017253;28;20022;-65
2021/06/24 05:03:47;;;;;;;27.77;18.52;;;;;;;;;;5017388;28;20029;-65
2021/06/24 05:06:15;;;;;;;23.40;16.88;;;;;;;;;;5035183;28;20101;-66
2021/06/24 05:08:41;;;;;;;32.75;18.10;;;;;;;;;;5034954;28;20018;-64
2021/06/24 05:11:07;;;;;;;28.95;17.65;;;;;;;;;;5034924;28;20389;-66
2021/06/24 05:13:33;;;;;;;28.30;17.75;;;;;;;;;;5034848;28;20033;-65
2021/06/24 05:15:59;;;;;;;26.25;18.25;;;;;;;;;;5034681;28;20025;-66
2021/06/24 05:18:25;;;;;;;25.50;16.85;;;;;;;;;;5034661;28;20440;-67
2021/06/24 05:20:51;;;;;;;23.65;16.27;;;;;;;;;;5034579;28;20395;-66
2021/06/24 05:23:18;;;;;;;24.67;15.88;;;;;;;;;;5034419;28;20042;-63
2021/06/24 05:25:45;;;;;;;24.90;17.38;;;;;;;;;;5034235;28;20017;-66
2021/06/24 05:28:11;;;;;;;24.30;16.42;;;;;;;;;;5034262;28;20090;-65
2021/06/24 05:30:38;;;;;;;27.35;16.55;;;;;;;;;;5034471;28;20474;-65
2021/06/24 05:33:04;;;;;;;28.95;17.63;;;;;;;;;;5034180;28;20025;-65
2021/06/24 05:35:31;;;;;;;29.00;18.65;;;;;;;;;;5033867;28;20367;-65
2021/06/24 05:37:57;;;;;;;25.73;16.92;;;;;;;;;;5016766;28;20144;-65
2021/06/24 05:40:23;;;;;;;27.67;17.10;;;;;;;;;;5034061;28;20057;-65
2021/06/24 05:42:50;;;;;;;23.88;16.42;;;;;;;;;;5034021;28;20029;-66
2021/06/24 05:45:16;;;;;;;23.80;17.08;;;;;;;;;;5033473;28;20021;-63
2021/06/24 05:47:42;;;;;;;22.27;15.93;;;;;;;;;;5033475;28;20435;-64
2021/06/24 05:50:08;;;;;;;26.33;16.33;;;;;;;;;;5034048;28;20022;-64
2021/06/24 05:52:37;;;;;;;25.75;16.13;;;;;;;;;;5034017;28;20033;-64
2021/06/24 05:55:03;;;;;;;24.83;15.57;;;;;;;;;;5033414;28;20030;-65
2021/06/24 05:57:29;;;;;;;25.02;15.85;;;;;;;;;;5033692;28;20049;-63
2021/06/24 05:59:55;;;;;;;24.35;15.65;;;;;;;;;;5035763;28;20032;-66
2021/06/24 06:02:21;;;;;;;26.02;15.82;;;;;;;;;;5039812;28;20036;-64
2021/06/24 06:04:47;;;;;;;27.52;19.67;;;;;;;;;;5039587;28;20032;-65
2021/06/24 06:07:13;;;;;;;24.23;16.40;;;;;;;;;;5053438;28;20021;-65
2021/06/24 06:09:39;;;;;;;24.13;15.63;;;;;;;;;;5044666;28;20497;-65
2021/06/24 06:12:06;;;;;;;25.05;16.27;;;;;;;;;;5033698;28;20053;-64
2021/06/24 06:14:32;;;;;;;27.05;17.00;;;;;;;;;;5033187;28;20025;-65
2021/06/24 06:16:58;;;;;;;29.05;15.98;;;;;;;;;;5035148;28;20025;-63
2021/06/24 06:19:24;;;;;;;25.20;16.83;;;;;;;;;;5054478;28;20025;-64
2021/06/24 06:21:50;;;;;;;28.00;16.65;;;;;;;;;;5055742;28;20029;-64
2021/06/24 06:24:16;;;;;;;26.77;17.50;;;;;;;;;;5054405;28;20032;-64
2021/06/24 06:26:42;;;;;;;23.98;16.58;;;;;;;;;;5053383;28;20021;-64
2021/06/24 06:29:08;;;;;;;27.83;16.80;;;;;;;;;;5039209;22;20114;-65
2021/06/24 06:31:39;;;;;;;26.83;19.02;;;;;;;;;;5032799;28;20474;-65
2021/06/24 06:34:05;;;;;;;25.58;17.02;;;;;;;;;;5033266;28;20037;-64
2021/06/24 06:36:31;;;;;;;25.50;17.88;;;;;;;;;;4996143;28;20022;-64
2021/06/24 06:38:57;;;;;;;25.23;16.77;;;;;;;;;;5012934;28;20080;-64
2021/06/24 06:41:23;;;;;;;32.67;17.02;;;;;;;;;;4995938;28;20113;-65
2021/06/24 06:43:49;;;;;;;25.95;16.77;;;;;;;;;;5012804;28;20474;-64
2021/06/24 06:46:15;;;;;;;28.25;17.25;;;;;;;;;;4995280;28;20051;-67
2021/06/24 06:48:41;;;;;;;24.35;17.05;;;;;;;;;;5013436;28;20024;-65
2021/06/24 06:51:07;;;;;;;25.25;16.10;;;;;;;;;;5012508;28;20025;-65
2021/06/24 06:53:33;;;;;;;25.38;16.65;;;;;;;;;;5015634;28;20037;-65
2021/06/24 06:55:59;;;;;;;27.17;18.45;;;;;;;;;;5022421;28;20390;-62
2021/06/24 06:58:25;;;;;;;27.77;17.05;;;;;;;;;;5004726;28;20033;-64
2021/06/24 07:00:51;;;;;;;25.75;17.88;;;;;;;;;;5022869;28;20018;-64
2021/06/24 07:03:17;;;;;;;24.90;16.67;;;;;;;;;;5021352;28;20029;-65
2021/06/24 07:05:43;;;;;;;23.52;15.48;;;;;;;;;;5023058;28;20473;-66
2021/06/24 07:08:10;;;;;;;24.95;16.25;;;;;;;;;;5022420;28;20025;-66
2021/06/24 07:10:36;;;;;;;25.33;15.90;;;;;;;;;;5021830;28;20105;-66
2021/06/24 07:13:02;;;;;;;23.08;16.38;;;;;;;;;;5021716;28;20058;-66
2021/06/24 07:15:28;;;;;;;24.67;16.20;;;;;;;;;;5006195;28;20533;-67
2021/06/24 07:17:54;;;;;;;25.80;17.90;;;;;;;;;;5011795;28;20496;-66
2021/06/24 07:20:20;;;;;;;23.45;15.95;;;;;;;;;;5029514;28;20526;-69
2021/06/24 07:22:46;;;;;;;24.75;16.30;;;;;;;;;;5001576;28;20057;-66
2021/06/24 07:25:18;;;;;;;24.30;17.25;;;;;;;;;;5012613;28;20018;-65
2021/06/24 07:27:45;;;;;;;28.13;17.52;;;;;;;;;;4995192;28;20041;-66
2021/06/24 07:30:11;;;;;;;24.35;16.63;;;;;;;;;;5012301;28;20022;-66
2021/06/24 07:32:37;;;;;;;25.95;15.80;;;;;;;;;;5012776;28;20116;-65
2021/06/24 07:35:05;;;;;;;25.55;16.10;;;;;;;;;;5012548;28;20056;-65
2021/06/24 07:37:31;;;;;;;22.70;16.23;;;;;;;;;;5001449;28;20033;-66
2021/06/24 07:39:57;;;;;;;27.17;17.65;;;;;;;;;;5022402;28;20032;-65
2021/06/24 07:42:23;;;;;;;22.88;15.27;;;;;;;;;;5004591;28;20353;-66
2021/06/24 07:44:49;;;;;;;21.98;16.02;;;;;;;;;;5021372;28;20155;-64
2021/06/24 07:47:18;;;;;;;24.40;16.20;;;;;;;;;;5005868;28;20017;-67
2021/06/24 07:49:44;;;;;;;21.40;15.70;;;;;;;;;;5004908;28;20022;-64
2021/06/24 07:52:10;;;;;;;23.83;16.52;;;;;;;;;;5003845;28;20095;-66
2021/06/24 07:54:36;;;;;;;23.48;16.90;;;;;;;;;;5002911;28;20022;-64
2021/06/24 07:57:02;;;;;;;21.45;15.70;;;;;;;;;;5012719;28;20492;-66
2021/06/24 07:59:28;;;;;;;24.38;17.33;;;;;;;;;;5021494;28;20374;-65
2021/06/24 08:01:54;;;;;;;22.27;15.80;;;;;;;;;;5014972;28;20022;-66
2021/06/24 08:04:20;;;;;;;22.02;16.42;;;;;;;;;;5013316;28;20021;-65
2021/06/24 08:06:46;;;;;;;24.98;16.73;;;;;;;;;;5032116;28;20028;-66
2021/06/24 08:09:14;;;;;;;24.85;17.73;;;;;;;;;;5014123;28;20496;-67
2021/06/24 08:11:40;;;;;;;24.48;16.17;;;;;;;;;;5014531;28;20048;-67
2021/06/24 08:14:06;;;;;;;24.25;16.20;;;;;;;;;;5031901;28;20017;-62
2021/06/24 08:16:32;;;;;;;23.40;15.48;;;;;;;;;;5010466;28;20052;-66
2021/06/24 08:18:58;;;;;;;25.17;15.45;;;;;;;;;;5020282;28;20018;-66
2021/06/24 08:21:24;;;;;;;24.48;16.13;;;;;;;;;;5005564;28;20044;-65
2021/06/24 08:23:51;;;;;;;24.40;16.00;;;;;;;;;;5020992;28;20017;-66
2021/06/24 08:26:18;;;;;;;22.10;16.35;;;;;;;;;;5005114;28;20022;-66
2021/06/24 08:28:44;;;;;;;24.67;16.02;;;;;;;;;;5019739;28;20033;-65
2021/06/24 08:31:10;;;;;;;24.90;16.80;;;;;;;;;;5012799;28;20026;-65
2021/06/24 08:33:36;;;;;;;23.33;16.15;;;;;;;;;;4994982;28;20026;-65
2021/06/24 08:36:04;;;;;;;26.13;16.50;;;;;;;;;;4994658;28;20401;-65
2021/06/24 08:38:29;;;;;;;30.23;17.37;;;;;;;;;;4994527;28;20068;-66
2021/06/24 08:40:56;;;;;;;22.60;17.02;;;;;;;;;;5011801;28;20296;-65
2021/06/24 08:43:22;;;;;;;24.40;17.65;;;;;;;;;;5011623;28;20077;-66
2021/06/24 08:45:48;;;;;;;21.95;16.40;;;;;;;;;;4993916;28;20061;-66
2021/06/24 08:48:15;;;;;;;23.23;15.68;;;;;;;;;;4993613;28;20061;-66
2021/06/24 08:50:43;;;;;;;22.73;16.77;;;;;;;;;;4993994;28;20045;-66
2021/06/24 08:53:09;;;;;;;23.83;17.67;;;;;;;;;;5011631;28;20486;-66
2021/06/24 08:55:39;;;;;;;23.42;17.60;;;;;;;;;;5011860;28;20072;-66
2021/06/24 08:58:06;;;;;;;23.33;16.63;;;;;;;;;;5011985;28;20060;-67
2021/06/24 09:00:32;;;;;;;23.55;15.52;;;;;;;;;;4994356;28;20088;-69
2021/06/24 09:03:13;;;;;;;21.25;15.50;;;;;;;;;;5011499;28;20125;-64
2021/06/24 09:05:49;;;;;;;28.38;16.23;;;;;;;;;;5011312;28;20453;-65
2021/06/24 09:08:36;;;;;;;22.83;16.05;;;;;;;;;;5010505;28;20117;-66
2021/06/24 09:11:08;;;;;;;25.90;15.63;;;;;;;;;;5011962;28;20540;-65
2021/06/24 09:13:35;;;;;;;21.60;16.15;;;;;;;;;;5010575;28;20092;-66
2021/06/24 09:16:07;;;;;;;24.08;16.33;;;;;;;;;;5013530;28;20052;-64
2021/06/24 09:18:33;;;;;;;23.48;16.17;;;;;;;;;;5013682;28;20406;-65
2021/06/24 09:21:02;;;;;;;21.08;15.80;;;;;;;;;;5015086;28;20390;-63
2021/06/24 09:23:28;;;;;;;25.38;15.60;;;;;;;;;;5013738;28;20104;-65
2021/06/24 09:26:20;;;;;;;22.40;15.80;;;;;;;;;;5014909;28;20471;-66
2021/06/24 09:28:51;;;;;;;22.92;15.50;;;;;;;;;;5013671;28;20096;-64
2021/06/24 09:31:41;;;;;;;23.38;15.98;;;;;;;;;;5015065;28;20050;-66
2021/06/24 09:34:09;;;;;;;24.80;16.45;;;;;;;;;;5013647;28;20025;-66
2021/06/24 09:36:37;;;;;;;19.60;15.10;;;;;;;;;;5013508;28;20431;-65
2021/06/24 09:39:04;;;;;;;23.70;16.63;;;;;;;;;;5015037;28;20466;-64
2021/06/24 09:41:31;;;;;;;21.83;16.53;;;;;;;;;;5012799;28;20026;-67
2021/06/24 09:43:57;;;;;;;22.23;15.65;;;;;;;;;;5014527;28;20026;-66
2021/06/24 09:46:26;;;;;;;24.08;16.77;;;;;;;;;;4997023;28;20091;-66
2021/06/24 09:48:59;;;;;;;23.45;16.70;;;;;;;;;;4996553;28;20026;-66
2021/06/24 09:51:26;;;;;;;21.90;16.30;;;;;;;;;;5014312;28;20048;-66
2021/06/24 09:54:00;;;;;;;24.70;16.73;;;;;;;;;;4996526;28;20584;-62
2021/06/24 09:56:26;;;;;;;24.45;17.15;;;;;;;;;;4996272;28;20033;-64
2021/06/24 09:58:53;;;;;;;29.17;18.10;;;;;;;;;;5014445;28;20026;-67
2021/06/24 10:01:36;;;;;;;23.95;17.88;;;;;;;;;;4996645;28;20033;-64
2021/06/24 10:04:02;;;;;;;25.13;18.08;;;;;;;;;;5033476;28;20481;-62
2021/06/24 10:06:28;;;;;;;23.52;17.33;;;;;;;;;;5033864;28;20716;-67
2021/06/24 10:08:56;;;;;;;23.42;16.88;;;;;;;;;;5033803;28;20022;-66
2021/06/24 10:11:23;;;;;;;21.65;16.88;;;;;;;;;;5033837;28;20017;-66
2021/06/24 10:13:49;;;;;;;22.83;18.48;;;;;;;;;;5034023;28;20346;-66
2021/06/24 10:16:16;;;;;;;23.17;18.10;;;;;;;;;;5033200;28;20028;-67
2021/06/24 10:18:45;;;;;;;22.42;17.27;;;;;;;;;;5015320;28;20091;-66
2021/06/24 10:21:11;;;;;;;21.05;17.15;;;;;;;;;;5015956;28;20079;-67
2021/06/24 10:23:39;;;;;;;22.60;16.50;;;;;;;;;;5015796;28;20030;-66
2021/06/24 10:26:05;;;;;;;22.00;16.45;;;;;;;;;;5032504;28;20100;-65
2021/06/24 10:28:31;;;;;;;21.13;17.42;;;;;;;;;;5033028;28;20452;-63
2021/06/24 10:30:57;;;;;;;20.83;17.45;;;;;;;;;;5032887;28;20103;-64
2021/06/24 10:33:23;;;;;;;23.65;18.17;;;;;;;;;;5033246;28;20022;-63
2021/06/24 10:35:55;;;;;;;21.50;16.75;;;;;;;;;;5033061;28;20029;-63
2021/06/24 10:38:23;;;;;;;22.88;18.08;;;;;;;;;;5015791;28;20133;-63
2021/06/24 10:40:56;;;;;;;21.35;16.63;;;;;;;;;;5013459;28;20034;-63
2021/06/24 10:43:25;;;;;;;28.15;18.92;;;;;;;;;;4995200;28;20052;-63
2021/06/24 10:46:10;;;;;;;23.42;19.08;;;;;;;;;;5012974;28;20093;-63
2021/06/24 10:48:36;;;;;;;22.02;18.38;;;;;;;;;;5013235;28;20056;-63
2021/06/24 10:51:09;;;;;;;24.00;18.33;;;;;;;;;;5005099;28;20529;-63
2021/06/24 10:53:37;;;;;;;23.33;17.95;;;;;;;;;;5015009;28;20029;-63
2021/06/24 10:56:21;;;;;;;22.05;17.50;;;;;;;;;;5032560;28;20554;-63
2021/06/24 10:58:47;;;;;;;21.67;17.48;;;;;;;;;;5032474;28;20030;-63
2021/06/24 11:01:13;;;;;;;21.05;16.90;;;;;;;;;;5032341;28;20030;-63
2021/06/24 11:03:44;;;;;;;21.02;17.90;;;;;;;;;;5032188;28;20040;-62
2021/06/24 11:06:12;;;;;;;23.83;17.90;;;;;;;;;;5032476;28;20021;-64
2021/06/24 11:08:42;;;;;;;23.25;18.42;;;;;;;;;;5032634;28;20626;-63
2021/06/24 11:11:09;;;;;;;20.42;17.38;;;;;;;;;;5014604;28;20366;-63
2021/06/24 11:13:42;;;;;;;23.13;17.52;;;;;;;;;;5032307;28;20039;-62
2021/06/24 11:16:18;;;;;;;22.58;16.83;;;;;;;;;;5032041;28;20052;-63
2021/06/24 11:18:53;;;;;;;26.52;18.95;;;;;;;;;;5032655;28;20385;-63
2021/06/24 11:21:42;;;;;;;22.88;18.95;;;;;;;;;;5032608;28;20057;-63
2021/06/24 11:24:08;;;;;;;22.90;18.35;;;;;;;;;;5032348;28;20036;-61
2021/06/24 11:26:39;;;;;;;19.00;16.17;;;;;;;;;;5031851;28;20029;-63
2021/06/24 11:31:36;;;;;;;21.60;18.25;;;;;;;;;;5031821;28;20064;-63
2021/06/24 11:36:49;;;;;;;20.35;16.90;;;;;;;;;;5022489;28;20083;-62
2021/06/24 11:39:25;;;;;;;20.02;16.92;;;;;;;;;;5011701;28;20025;-61
2021/06/24 11:41:52;;;;;;;20.50;17.02;;;;;;;;;;5032994;28;20025;-63
2021/06/24 11:44:29;;;;;;;20.42;16.95;;;;;;;;;;5032305;28;20021;-63
2021/06/24 11:46:56;;;;;;;19.50;17.30;;;;;;;;;;5031923;28;20025;-63
2021/06/24 11:49:32;;;;;;;21.23;18.40;;;;;;;;;;5031934;28;20473;-63
2021/06/24 12:03:07;;;;;;;20.65;18.10;;;;;;;;;;5032097;28;20036;-63
2021/06/24 12:05:33;;;;;;;21.20;18.23;;;;;;;;;;5031684;28;20018;-64
2021/06/24 12:07:59;;;;;;;20.92;18.70;;;;;;;;;;5013828;28;20264;-63
2021/06/24 12:10:25;;;;;;;21.63;19.33;;;;;;;;;;5031718;28;20109;-63
2021/06/24 12:12:51;;;;;;;22.48;19.58;;;;;;;;;;5013725;28;20220;-62
2021/06/24 12:15:17;;;;;;;21.25;18.95;;;;;;;;;;5031395;28;20052;-63
2021/06/24 12:17:43;;;;;;;20.80;18.65;;;;;;;;;;5031043;28;20097;-61
2021/06/24 12:20:12;;;;;;;20.90;18.63;;;;;;;;;;5027938;28;20512;-64
2021/06/24 12:23:05;;;;;;;21.90;19.60;;;20.70;99.90;;;;;;5004565;28;20144;-63
2021/06/24 12:25:36;;;;;;;22.33;19.92;;;;;;;;;;5022471;28;20036;-62
2021/06/24 12:28:03;;;;;;;22.33;19.95;;;;;;;;;;5028141;23;20101;-62
2021/06/24 12:30:30;;;;;;;25.80;21.13;;;;;;;;;;5010976;28;20030;-64
2021/06/24 12:33:02;;;;;;;23.35;20.92;;;;;;;;;;5011796;28;20025;-65
2021/06/24 12:35:31;;;;;;;23.98;21.23;;;;;;;;;;5011549;28;20108;-64
2021/06/24 12:38:00;;;;;;;23.08;20.77;;;;;;;;;;5011757;28;20026;-65
2021/06/24 12:40:26;;;;;;;;;;;;;;;;;;5012146;28;20033;-64
2021/06/24 12:42:56;;;;;;;23.77;21.27;;;;;;;;;;5011840;28;19910;-64
2021/06/24 12:45:33;;;;;;;23.40;19.80;;;;;;;;;;5010750;28;20026;-63
2021/06/24 12:47:59;;;;;;;21.92;19.63;;;;;;;;;;5008568;28;20022;-65
2021/06/24 12:50:27;;;;;;;23.83;21.17;;;;;;;;;;5009344;28;20022;-64
2021/06/24 12:52:55;;;;;;;22.35;20.10;;;;;;;;;;5011153;28;20616;-63
2021/06/24 12:55:36;;;;;;;23.88;21.38;;;;;;;;;;5011457;28;20026;-65
2021/06/24 12:58:03;;;;;;;22.77;20.35;;;;;;;;;;5012214;28;20026;-63
2021/06/24 13:00:29;;;;;;;25.92;20.75;;;;;;;;;;5011872;28;20026;-63
2021/06/24 13:02:55;;;;;;;22.25;19.92;;;;;;;;;;5010549;28;20041;-63
2021/06/24 13:05:24;;;;;;;23.80;21.30;;;;;;;;;;5012185;28;20435;-65
2021/06/24 13:08:04;;;;;;;23.15;20.75;;;;;;;;;;5011466;28;20052;-65
2021/06/24 13:10:30;;;;;;;23.02;20.45;;;;;;;;;;5010437;28;20075;-65
2021/06/24 13:12:56;;;;;;;24.63;20.63;;;;;;;;;;5011739;28;20022;-65
2021/06/24 13:15:32;;;;;;;22.85;20.55;;;;;;;;;;5011636;28;20515;-65
2021/06/24 13:17:59;;;;;;;23.10;20.63;;;;;;;;;;5011743;28;20033;-66
2021/06/24 13:20:25;;;;;;;23.05;20.60;;;;;;;;;;5011971;28;20037;-65
2021/06/24 13:22:51;;;;;;;21.70;19.40;;;;;;;;;;5010384;28;20030;-65
2021/06/24 13:25:21;;;;;;;22.77;20.48;;;;;;;;;;5011334;28;20033;-65
2021/06/24 13:27:47;;;;;;;22.90;20.30;;;;;;;;;;5010056;28;20026;-66
2021/06/24 13:30:14;;;;;;;23.05;20.60;;;;;;;;;;5011440;28;20052;-64
2021/06/24 13:32:44;;;;;;;22.58;20.17;;;;;;;;;;5011651;28;20045;-64
2021/06/24 13:35:39;;;;;;;23.55;20.98;;;;;;;;;;5011327;28;20401;-63
2021/06/24 13:38:15;;;;;;;22.60;19.90;;;;;;;;;;4994416;28;20038;-64
2021/06/24 13:40:43;;;;;;;22.75;20.38;;;;;;;;;;5011597;28;20029;-65
2021/06/24 13:43:10;;;;;;;24.15;21.23;;;;;;;;;;5010830;28;20057;-64
2021/06/24 13:45:36;;;;;;;23.73;21.17;;;;;;;;;;5009871;28;20033;-65
2021/06/24 13:48:03;;;;;;;24.52;21.30;;;;;;;;;;5009799;28;20489;-64
2021/06/24 13:50:29;;;;;;;25.08;20.08;;;;;;;;;;5011184;28;20022;-64
2021/06/24 13:52:55;;;;;;;22.60;20.25;;;;;;;;;;5011197;28;20033;-64
2021/06/24 13:55:21;;;;;;;22.77;20.38;;;;;;;;;;5011109;28;20303;-63
2021/06/24 13:57:47;;;;;;;23.27;20.77;;;;;;;;;;5011110;28;20557;-64
2021/06/24 14:00:13;;;;;;;22.90;19.95;;;;;;;;;;5010730;28;20030;-64
2021/06/24 14:02:39;;;;;;;22.10;19.80;;;;;;;;;;5008970;28;20121;-64
2021/06/24 14:05:06;;;;;;;22.92;20.25;;;;;;;;;;5010959;28;20726;-64
2021/06/24 14:07:32;;;;;;;22.00;19.73;;;;;;;;;;5009541;28;20062;-63
2021/06/24 14:09:58;;;;;;;22.10;19.35;;;;;;;;;;5011294;28;20025;-63
2021/06/24 14:12:24;;;;;;;21.83;19.48;;;;;;;;;;5011088;28;20029;-64
2021/06/24 14:14:49;;;;;;;21.35;19.10;;;;;;;;;;5010795;28;20076;-64
2021/06/24 14:17:15;;;;;;;22.58;20.17;;;;;;;;;;5009133;28;20466;-62
2021/06/24 14:19:42;;;;;;;23.00;20.60;;;;;;;;;;5010240;28;20057;-63
2021/06/24 14:22:08;;;;;;;23.73;21.10;;;;;;;;;;5010327;28;20026;-64
2021/06/24 14:24:35;;;;;;;22.40;20.20;;;;;;;;;;5010350;28;20139;-64
2021/06/24 14:27:02;;;;;;;23.40;20.88;;;;;;;;;;5010769;28;20060;-61
2021/06/24 14:29:28;;;;;;;22.45;20.05;;;;;;;;;;5011102;28;20418;-64
2021/06/24 14:31:56;;;;;;;22.77;20.02;;;;;;;;;;5009338;28;20103;-64
2021/06/24 14:34:23;;;;;;;23.45;20.30;;;;;;;;;;5008829;28;20076;-65
2021/06/24 14:36:49;;;;;;;22.20;19.90;;;;;;;;;;5008799;28;20063;-64